sensor_id;sensor_type;location;lat;lon;timestamp;pressure;altitude;pressure_sealevel;temperature;humidity
72055;BME280;59936;51.490;5.436;2023-04-03T00:01:00;102821.03;;;0.13;84.72
72055;BME280;59936;51.490;5.436;2023-04-03T00:03:26;102823.03;;;0.05;85.14
72055;BME280;59936;51.490;5.436;2023-04-03T00:05:52;102822.25;;;0.01;84.56
72055;BME280;59936;51.490;5.436;2023-04-03T00:08:19;102831.19;;;-0.04;84.12
72055;BME280;59936;51.490;5.436;2023-04-03T00:10:44;102822.41;;;-0.03;84.42
72055;BME280;59936;51.490;5.436;2023-04-03T00:13:10;102822.59;;;-0.09;85.82
72055;BME280;59936;51.490;5.436;2023-04-03T00:15:37;102830.59;;;-0.12;85.13
72055;BME280;59936;51.490;5.436;2023-04-03T00:18:03;102826.22;;;-0.13;85.25
72055;BME280;59936;51.490;5.436;2023-04-03T00:20:29;102834.19;;;-0.15;84.83
72055;BME280;59936;51.490;5.436;2023-04-03T00:22:55;102832.50;;;-0.17;84.57
72055;BME280;59936;51.490;5.436;2023-04-03T00:25:21;102832.38;;;-0.13;85.62
72055;BME280;59936;51.490;5.436;2023-04-03T00:27:47;102827.81;;;-0.08;85.50
72055;BME280;59936;51.490;5.436;2023-04-03T00:30:16;102847.88;;;-0.04;86.95
72055;BME280;59936;51.490;5.436;2023-04-03T00:32:42;102847.88;;;-0.04;86.95
72055;BME280;59936;51.490;5.436;2023-04-03T00:35:08;102847.91;;;-0.05;86.61
72055;BME280;59936;51.490;5.436;2023-04-03T00:37:34;102843.72;;;-0.11;85.81
72055;BME280;59936;51.490;5.436;2023-04-03T00:40:00;102853.59;;;-0.19;85.55
72055;BME280;59936;51.490;5.436;2023-04-03T00:42:26;102848.50;;;-0.25;85.20
72055;BME280;59936;51.490;5.436;2023-04-03T00:47:21;102840.41;;;-0.17;86.39
72055;BME280;59936;51.490;5.436;2023-04-03T00:49:46;102850.06;;;-0.18;85.94
72055;BME280;59936;51.490;5.436;2023-04-03T00:52:16;102846.81;;;-0.28;86.68
72055;BME280;59936;51.490;5.436;2023-04-03T00:54:45;102847.06;;;-0.35;85.81
72055;BME280;59936;51.490;5.436;2023-04-03T00:57:14;102851.63;;;-0.42;85.39
72055;BME280;59936;51.490;5.436;2023-04-03T00:59:45;102854.31;;;-0.43;85.53
72055;BME280;59936;51.490;5.436;2023-04-03T01:02:12;102854.31;;;-0.43;85.53
72055;BME280;59936;51.490;5.436;2023-04-03T01:04:40;102859.06;;;-0.56;84.88
72055;BME280;59936;51.490;5.436;2023-04-03T01:07:10;102859.06;;;-0.56;84.88
72055;BME280;59936;51.490;5.436;2023-04-03T01:09:38;102853.94;;;-0.61;84.71
72055;BME280;59936;51.490;5.436;2023-04-03T01:14:45;102857.59;;;-0.66;84.58
72055;BME280;59936;51.490;5.436;2023-04-03T01:17:35;102856.72;;;-0.67;84.43
72055;BME280;59936;51.490;5.436;2023-04-03T01:25:17;102859.63;;;-0.76;84.40
72055;BME280;59936;51.490;5.436;2023-04-03T01:27:43;102854.41;;;-0.77;84.27
72055;BME280;59936;51.490;5.436;2023-04-03T01:30:09;102861.44;;;-0.78;84.20
72055;BME280;59936;51.490;5.436;2023-04-03T01:32:35;102869.31;;;-0.78;84.14
72055;BME280;59936;51.490;5.436;2023-04-03T01:35:01;102869.25;;;-0.75;84.02
72055;BME280;59936;51.490;5.436;2023-04-03T01:37:27;102875.38;;;-0.74;83.99
72055;BME280;59936;51.490;5.436;2023-04-03T01:39:53;102875.38;;;-0.74;83.99
72055;BME280;59936;51.490;5.436;2023-04-03T01:42:19;102862.06;;;-0.70;84.88
72055;BME280;59936;51.490;5.436;2023-04-03T01:44:45;102860.06;;;-0.60;84.91
72055;BME280;59936;51.490;5.436;2023-04-03T01:47:10;102864.38;;;-0.57;85.21
72055;BME280;59936;51.490;5.436;2023-04-03T01:49:36;102855.69;;;-0.61;85.00
72055;BME280;59936;51.490;5.436;2023-04-03T01:52:02;102862.78;;;-0.63;85.07
72055;BME280;59936;51.490;5.436;2023-04-03T01:54:28;102864.56;;;-0.65;84.78
72055;BME280;59936;51.490;5.436;2023-04-03T01:56:54;102870.88;;;-0.71;84.51
72055;BME280;59936;51.490;5.436;2023-04-03T01:59:20;102862.28;;;-0.77;84.46
72055;BME280;59936;51.490;5.436;2023-04-03T02:01:46;102865.03;;;-0.82;84.35
72055;BME280;59936;51.490;5.436;2023-04-03T02:04:12;102863.34;;;-0.84;84.28
72055;BME280;59936;51.490;5.436;2023-04-03T02:06:38;102854.56;;;-0.83;84.17
72055;BME280;59936;51.490;5.436;2023-04-03T02:09:03;102857.94;;;-0.78;84.20
72055;BME280;59936;51.490;5.436;2023-04-03T02:11:30;102855.22;;;-0.75;84.07
72055;BME280;59936;51.490;5.436;2023-04-03T02:13:56;102860.41;;;-0.72;83.96
72055;BME280;59936;51.490;5.436;2023-04-03T02:16:22;102857.78;;;-0.72;83.88
72055;BME280;59936;51.490;5.436;2023-04-03T02:18:48;102861.16;;;-0.69;84.02
72055;BME280;59936;51.490;5.436;2023-04-03T02:21:14;102866.25;;;-0.63;83.96
72055;BME280;59936;51.490;5.436;2023-04-03T02:23:40;102867.25;;;-0.67;83.69
72055;BME280;59936;51.490;5.436;2023-04-03T02:26:09;102862.94;;;-0.69;83.69
72055;BME280;59936;51.490;5.436;2023-04-03T02:28:36;102872.59;;;-0.70;83.59
72055;BME280;59936;51.490;5.436;2023-04-03T02:31:02;102874.47;;;-0.73;83.58
72055;BME280;59936;51.490;5.436;2023-04-03T02:33:28;102868.47;;;-0.78;84.11
72055;BME280;59936;51.490;5.436;2023-04-03T02:35:55;102876.34;;;-0.78;83.85
72055;BME280;59936;51.490;5.436;2023-04-03T02:38:22;102870.19;;;-0.77;83.87
72055;BME280;59936;51.490;5.436;2023-04-03T02:40:48;102880.59;;;-0.73;83.75
72055;BME280;59936;51.490;5.436;2023-04-03T02:43:14;102879.78;;;-0.75;83.68
72055;BME280;59936;51.490;5.436;2023-04-03T02:45:40;102878.00;;;-0.74;83.60
72055;BME280;59936;51.490;5.436;2023-04-03T02:48:06;102882.41;;;-0.75;83.57
72055;BME280;59936;51.490;5.436;2023-04-03T02:50:32;102882.44;;;-0.76;83.52
72055;BME280;59936;51.490;5.436;2023-04-03T02:52:58;102888.53;;;-0.74;83.69
72055;BME280;59936;51.490;5.436;2023-04-03T02:55:24;102888.53;;;-0.74;83.69
72055;BME280;59936;51.490;5.436;2023-04-03T02:57:49;102879.78;;;-0.75;83.61
72055;BME280;59936;51.490;5.436;2023-04-03T03:00:15;102886.78;;;-0.75;83.58
72055;BME280;59936;51.490;5.436;2023-04-03T03:02:41;102885.09;;;-0.78;83.51
72055;BME280;59936;51.490;5.436;2023-04-03T03:05:08;102892.19;;;-0.80;83.47
72055;BME280;59936;51.490;5.436;2023-04-03T03:07:33;102887.84;;;-0.82;83.53
72055;BME280;59936;51.490;5.436;2023-04-03T03:09:59;102887.97;;;-0.87;84.01
72055;BME280;59936;51.490;5.436;2023-04-03T03:12:25;102882.63;;;-0.84;83.89
72055;BME280;59936;51.490;5.436;2023-04-03T03:14:51;102888.72;;;-0.82;83.93
72055;BME280;59936;51.490;5.436;2023-04-03T03:17:17;102880.78;;;-0.80;83.93
72055;BME280;59936;51.490;5.436;2023-04-03T03:19:43;102890.41;;;-0.79;83.66
72055;BME280;59936;51.490;5.436;2023-04-03T03:22:09;102890.41;;;-0.79;83.66
72055;BME280;59936;51.490;5.436;2023-04-03T03:24:35;102878.25;;;-0.83;83.71
72055;BME280;59936;51.490;5.436;2023-04-03T03:27:00;102887.91;;;-0.84;83.81
72055;BME280;59936;51.490;5.436;2023-04-03T03:29:26;102885.25;;;-0.84;84.08
72055;BME280;59936;51.490;5.436;2023-04-03T03:31:52;102882.59;;;-0.82;84.07
72055;BME280;59936;51.490;5.436;2023-04-03T03:34:18;102889.66;;;-0.84;83.92
72055;BME280;59936;51.490;5.436;2023-04-03T03:36:44;102893.19;;;-0.85;83.88
72055;BME280;59936;51.490;5.436;2023-04-03T03:39:10;102889.78;;;-0.89;83.95
72055;BME280;59936;51.490;5.436;2023-04-03T03:41:35;102895.97;;;-0.92;83.89
72055;BME280;59936;51.490;5.436;2023-04-03T03:44:01;102896.88;;;-0.93;84.02
72055;BME280;59936;51.490;5.436;2023-04-03T03:46:27;102896.88;;;-0.93;84.02
72055;BME280;59936;51.490;5.436;2023-04-03T03:48:53;102899.47;;;-0.91;84.09
72055;BME280;59936;51.490;5.436;2023-04-03T03:51:19;102902.13;;;-0.93;84.07
72055;BME280;59936;51.490;5.436;2023-04-03T03:53:45;102910.97;;;-0.94;84.11
72055;BME280;59936;51.490;5.436;2023-04-03T03:56:11;102905.78;;;-0.97;84.15
72055;BME280;59936;51.490;5.436;2023-04-03T03:58:37;102904.97;;;-1.00;84.14
72055;BME280;59936;51.490;5.436;2023-04-03T04:01:05;102905.06;;;-1.03;84.15
72055;BME280;59936;51.490;5.436;2023-04-03T04:03:32;102906.75;;;-1.01;84.14
72055;BME280;59936;51.490;5.436;2023-04-03T04:05:58;102908.56;;;-1.03;84.05
72055;BME280;59936;51.490;5.436;2023-04-03T04:08:24;102912.88;;;-1.00;84.29
72055;BME280;59936;51.490;5.436;2023-04-03T04:10:50;102909.34;;;-0.99;84.30
72055;BME280;59936;51.490;5.436;2023-04-03T04:13:16;102907.69;;;-1.03;84.67
72055;BME280;59936;51.490;5.436;2023-04-03T04:15:42;102909.38;;;-1.01;84.35
72055;BME280;59936;51.490;5.436;2023-04-03T04:18:08;102910.44;;;-1.08;84.83
72055;BME280;59936;51.490;5.436;2023-04-03T04:20:34;102906.72;;;-0.99;84.61
72055;BME280;59936;51.490;5.436;2023-04-03T04:22:59;102906.72;;;-0.99;84.61
72055;BME280;59936;51.490;5.436;2023-04-03T04:25:25;102917.34;;;-1.04;84.53
72055;BME280;59936;51.490;5.436;2023-04-03T04:27:51;102915.59;;;-1.05;84.41
72055;BME280;59936;51.490;5.436;2023-04-03T04:30:17;102908.63;;;-1.06;84.33
72055;BME280;59936;51.490;5.436;2023-04-03T04:32:43;102915.72;;;-1.09;84.35
72055;BME280;59936;51.490;5.436;2023-04-03T04:35:09;102915.72;;;-1.09;84.35
72055;BME280;59936;51.490;5.436;2023-04-03T04:37:35;102908.78;;;-1.12;84.34
72055;BME280;59936;51.490;5.436;2023-04-03T04:40:00;102908.81;;;-1.13;84.37
72055;BME280;59936;51.490;5.436;2023-04-03T04:42:26;102913.31;;;-1.17;84.31
72055;BME280;59936;51.490;5.436;2023-04-03T04:44:52;102908.00;;;-1.15;84.42
72055;BME280;59936;51.490;5.436;2023-04-03T04:47:18;102924.56;;;-1.13;84.60
72055;BME280;59936;51.490;5.436;2023-04-03T04:49:44;102915.75;;;-1.11;84.72
72055;BME280;59936;51.490;5.436;2023-04-03T04:52:10;102931.53;;;-1.11;84.93
72055;BME280;59936;51.490;5.436;2023-04-03T04:54:36;102924.69;;;-1.16;84.71
72055;BME280;59936;51.490;5.436;2023-04-03T04:57:02;102923.81;;;-1.17;84.73
72055;BME280;59936;51.490;5.436;2023-04-03T04:59:28;102928.09;;;-1.14;84.77
72055;BME280;59936;51.490;5.436;2023-04-03T05:01:53;102931.59;;;-1.14;84.70
72055;BME280;59936;51.490;5.436;2023-04-03T05:04:19;102940.41;;;-1.15;84.76
72055;BME280;59936;51.490;5.436;2023-04-03T05:06:45;102940.41;;;-1.15;84.76
72055;BME280;59936;51.490;5.436;2023-04-03T05:09:11;102937.78;;;-1.15;84.79
72055;BME280;59936;51.490;5.436;2023-04-03T05:11:37;102939.56;;;-1.15;84.87
72055;BME280;59936;51.490;5.436;2023-04-03T05:14:03;102938.78;;;-1.20;84.71
72055;BME280;59936;51.490;5.436;2023-04-03T05:16:28;102938.69;;;-1.16;84.92
72055;BME280;59936;51.490;5.436;2023-04-03T05:18:54;102940.28;;;-1.10;84.70
72055;BME280;59936;51.490;5.436;2023-04-03T05:21:20;102946.34;;;-1.07;84.87
72055;BME280;59936;51.490;5.436;2023-04-03T05:23:46;102946.34;;;-1.07;84.87
72055;BME280;59936;51.490;5.436;2023-04-03T05:26:12;102939.31;;;-1.06;84.75
72055;BME280;59936;51.490;5.436;2023-04-03T05:28:38;102941.00;;;-1.04;84.94
72055;BME280;59936;51.490;5.436;2023-04-03T05:31:04;102943.50;;;-0.98;85.00
72055;BME280;59936;51.490;5.436;2023-04-03T05:33:29;102951.31;;;-0.95;84.93
72055;BME280;59936;51.490;5.436;2023-04-03T05:35:55;102951.31;;;-0.95;84.93
72055;BME280;59936;51.490;5.436;2023-04-03T05:38:21;102948.56;;;-0.92;85.24
72055;BME280;59936;51.490;5.436;2023-04-03T05:40:47;102960.84;;;-0.92;84.95
72055;BME280;59936;51.490;5.436;2023-04-03T05:43:13;102953.72;;;-0.87;84.98
72055;BME280;59936;51.490;5.436;2023-04-03T05:45:39;102953.50;;;-0.78;85.06
72055;BME280;59936;51.490;5.436;2023-04-03T05:48:05;102952.50;;;-0.72;85.31
72055;BME280;59936;51.490;5.436;2023-04-03T05:50:30;102958.28;;;-0.60;85.87
72055;BME280;59936;51.490;5.436;2023-04-03T05:52:57;102955.34;;;-0.49;86.45
72055;BME280;59936;51.490;5.436;2023-04-03T05:55:23;102964.59;;;-0.33;86.61
72055;BME280;59936;51.490;5.436;2023-04-03T05:57:49;102960.78;;;-0.22;86.56
72055;BME280;59936;51.490;5.436;2023-04-03T06:00:15;102959.75;;;-0.17;86.44
72055;BME280;59936;51.490;5.436;2023-04-03T06:02:42;102962.19;;;-0.09;86.75
72055;BME280;59936;51.490;5.436;2023-04-03T06:05:08;102963.53;;;0.04;87.49
72055;BME280;59936;51.490;5.436;2023-04-03T06:07:35;102965.69;;;0.21;87.46
72055;BME280;59936;51.490;5.436;2023-04-03T06:10:01;102965.91;;;0.42;88.27
72055;BME280;59936;51.490;5.436;2023-04-03T06:12:27;102969.72;;;0.60;87.64
72055;BME280;59936;51.490;5.436;2023-04-03T06:14:53;102965.53;;;1.35;86.55
72055;BME280;59936;51.490;5.436;2023-04-03T06:17:19;102970.88;;;1.83;85.55
72055;BME280;59936;51.490;5.436;2023-04-03T06:19:45;102970.88;;;1.83;85.55
72055;BME280;59936;51.490;5.436;2023-04-03T06:22:11;102966.53;;;2.06;84.28
72055;BME280;59936;51.490;5.436;2023-04-03T06:24:37;102968.63;;;1.96;82.79
72055;BME280;59936;51.490;5.436;2023-04-03T06:27:03;102972.03;;;2.00;82.44
72055;BME280;59936;51.490;5.436;2023-04-03T06:29:29;102984.53;;;1.95;82.86
72055;BME280;59936;51.490;5.436;2023-04-03T06:31:55;102981.44;;;1.83;82.70
72055;BME280;59936;51.490;5.436;2023-04-03T06:34:21;102987.13;;;1.71;82.64
72055;BME280;59936;51.490;5.436;2023-04-03T06:36:47;102987.13;;;1.71;82.64
72055;BME280;59936;51.490;5.436;2023-04-03T06:39:15;102983.47;;;1.75;82.72
72055;BME280;59936;51.490;5.436;2023-04-03T06:41:42;102981.63;;;2.02;82.70
72055;BME280;59936;51.490;5.436;2023-04-03T06:44:08;102986.88;;;2.27;81.94
72055;BME280;59936;51.490;5.436;2023-04-03T06:46:34;102988.00;;;2.43;80.58
72055;BME280;59936;51.490;5.436;2023-04-03T06:49:00;102984.69;;;2.60;80.58
72055;BME280;59936;51.490;5.436;2023-04-03T06:51:27;102979.41;;;2.82;80.92
72055;BME280;59936;51.490;5.436;2023-04-03T06:53:55;102976.06;;;3.20;80.29
72055;BME280;59936;51.490;5.436;2023-04-03T06:56:21;102985.38;;;3.71;78.77
72055;BME280;59936;51.490;5.436;2023-04-03T06:58:47;102984.09;;;4.19;78.62
72055;BME280;59936;51.490;5.436;2023-04-03T07:01:16;102988.13;;;4.65;76.35
72055;BME280;59936;51.490;5.436;2023-04-03T07:03:42;102987.78;;;5.09;75.07
72055;BME280;59936;51.490;5.436;2023-04-03T07:06:11;102987.25;;;5.71;75.30
72055;BME280;59936;51.490;5.436;2023-04-03T07:08:37;102984.91;;;6.31;72.30
72055;BME280;59936;51.490;5.436;2023-04-03T07:11:04;102984.78;;;6.97;73.96
72055;BME280;59936;51.490;5.436;2023-04-03T07:13:30;102989.28;;;7.26;72.87
72055;BME280;59936;51.490;5.436;2023-04-03T07:15:55;102980.13;;;7.46;62.67
72055;BME280;59936;51.490;5.436;2023-04-03T07:18:21;102989.09;;;7.59;70.08
72055;BME280;59936;51.490;5.436;2023-04-03T07:20:47;102989.09;;;7.59;70.08
72055;BME280;59936;51.490;5.436;2023-04-03T07:23:13;102996.09;;;7.90;60.64
72055;BME280;59936;51.490;5.436;2023-04-03T07:25:43;102985.72;;;7.42;67.25
72055;BME280;59936;51.490;5.436;2023-04-03T07:28:09;102992.78;;;7.57;67.58
72055;BME280;59936;51.490;5.436;2023-04-03T07:30:42;102990.81;;;7.75;69.50
72055;BME280;59936;51.490;5.436;2023-04-03T07:33:08;102999.59;;;7.77;63.20
72055;BME280;59936;51.490;5.436;2023-04-03T07:35:34;102996.75;;;8.22;68.92
72055;BME280;59936;51.490;5.436;2023-04-03T07:38:00;102993.44;;;8.33;70.12
72055;BME280;59936;51.490;5.436;2023-04-03T07:40:25;103005.00;;;8.75;68.28
72055;BME280;59936;51.490;5.436;2023-04-03T07:42:51;103001.78;;;8.69;61.20
72055;BME280;59936;51.490;5.436;2023-04-03T07:45:17;103010.53;;;8.71;62.52
72055;BME280;59936;51.490;5.436;2023-04-03T07:47:43;103002.53;;;9.13;62.96
72055;BME280;59936;51.490;5.436;2023-04-03T07:50:08;103000.72;;;9.53;65.54
72055;BME280;59936;51.490;5.436;2023-04-03T07:52:34;102997.06;;;9.41;53.39
72055;BME280;59936;51.490;5.436;2023-04-03T07:55:00;103000.81;;;9.38;65.26
72055;BME280;59936;51.490;5.436;2023-04-03T07:57:26;102999.97;;;9.51;52.70
72055;BME280;59936;51.490;5.436;2023-04-03T07:59:51;103004.25;;;9.53;64.38
72055;BME280;59936;51.490;5.436;2023-04-03T08:02:17;103006.84;;;9.28;54.39
72055;BME280;59936;51.490;5.436;2023-04-03T08:04:43;103003.97;;;9.83;67.68
72055;BME280;59936;51.490;5.436;2023-04-03T08:07:09;102999.50;;;10.58;56.70
72055;BME280;59936;51.490;5.436;2023-04-03T08:09:34;103000.97;;;10.75;58.49
72055;BME280;59936;51.490;5.436;2023-04-03T08:12:00;102999.22;;;10.37;51.18
72055;BME280;59936;51.490;5.436;2023-04-03T08:14:26;103001.53;;;10.67;64.71
72055;BME280;59936;51.490;5.436;2023-04-03T08:16:52;103011.19;;;10.57;52.60
72055;BME280;59936;51.490;5.436;2023-04-03T08:19:17;103009.41;;;10.82;60.17
72055;BME280;59936;51.490;5.436;2023-04-03T08:21:44;103008.66;;;10.80;50.19
72055;BME280;59936;51.490;5.436;2023-04-03T08:24:10;103004.59;;;11.34;63.53
72055;BME280;59936;51.490;5.436;2023-04-03T08:26:36;103001.88;;;10.99;60.33
72055;BME280;59936;51.490;5.436;2023-04-03T08:29:02;102989.88;;;11.40;53.09
72055;BME280;59936;51.490;5.436;2023-04-03T08:31:28;103001.16;;;11.67;61.06
72055;BME280;59936;51.490;5.436;2023-04-03T08:33:53;102998.72;;;11.64;55.16
72055;BME280;59936;51.490;5.436;2023-04-03T08:36:23;103003.81;;;11.21;46.47
72055;BME280;59936;51.490;5.436;2023-04-03T08:38:50;103007.91;;;11.38;56.89
72055;BME280;59936;51.490;5.436;2023-04-03T08:43:50;102998.53;;;11.78;57.13
72055;BME280;59936;51.490;5.436;2023-04-03T08:46:17;103008.63;;;11.75;45.01
72055;BME280;59936;51.490;5.436;2023-04-03T08:48:45;103013.53;;;11.46;60.39
72055;BME280;59936;51.490;5.436;2023-04-03T08:51:17;103013.28;;;11.14;58.84
72055;BME280;59936;51.490;5.436;2023-04-03T08:53:55;103017.13;;;12.26;58.57
72055;BME280;59936;51.490;5.436;2023-04-03T08:56:24;103011.59;;;13.27;52.36
72055;BME280;59936;51.490;5.436;2023-04-03T08:58:57;103015.78;;;13.20;54.38
72055;BME280;59936;51.490;5.436;2023-04-03T09:01:26;103008.19;;;13.25;57.46
72055;BME280;59936;51.490;5.436;2023-04-03T09:03:53;103015.13;;;12.95;55.17
72055;BME280;59936;51.490;5.436;2023-04-03T09:06:21;103019.00;;;13.13;55.46
72055;BME280;59936;51.490;5.436;2023-04-03T09:16:41;103007.78;;;11.86;49.61
72055;BME280;59936;51.490;5.436;2023-04-03T09:21:58;103012.19;;;11.40;38.97
72055;BME280;59936;51.490;5.436;2023-04-03T09:24:26;103023.63;;;12.57;50.33
72055;BME280;59936;51.490;5.436;2023-04-03T09:26:56;103018.91;;;13.04;50.08
72055;BME280;59936;51.490;5.436;2023-04-03T09:29:24;103009.72;;;13.59;43.34
72055;BME280;59936;51.490;5.436;2023-04-03T09:31:52;103015.66;;;14.15;47.40
72055;BME280;59936;51.490;5.436;2023-04-03T09:34:31;103011.91;;;13.65;47.55
72055;BME280;59936;51.490;5.436;2023-04-03T09:37:01;103017.34;;;13.33;48.92
72055;BME280;59936;51.490;5.436;2023-04-03T09:39:28;103011.91;;;13.86;39.91
72055;BME280;59936;51.490;5.436;2023-04-03T09:42:14;103013.22;;;13.92;46.67
72055;BME280;59936;51.490;5.436;2023-04-03T09:44:44;103010.59;;;14.01;41.98
72055;BME280;59936;51.490;5.436;2023-04-03T09:49:48;103003.97;;;14.05;38.83
72055;BME280;59936;51.490;5.436;2023-04-03T09:52:26;103006.41;;;14.08;48.49
72055;BME280;59936;51.490;5.436;2023-04-03T09:54:52;102996.72;;;13.96;41.07
72055;BME280;59936;51.490;5.436;2023-04-03T09:57:18;103001.88;;;13.88;47.34
72055;BME280;59936;51.490;5.436;2023-04-03T09:59:56;103000.75;;;13.91;47.57
72055;BME280;59936;51.490;5.436;2023-04-03T10:02:23;102998.44;;;13.44;47.59
72055;BME280;59936;51.490;5.436;2023-04-03T10:04:53;102999.19;;;12.38;46.93
72055;BME280;59936;51.490;5.436;2023-04-03T10:07:45;102978.06;;;12.22;46.65
72055;BME280;59936;51.490;5.436;2023-04-03T10:12:40;102982.06;;;11.94;46.38
72055;BME280;59936;51.490;5.436;2023-04-03T10:15:14;102990.38;;;12.36;47.75
72055;BME280;59936;51.490;5.436;2023-04-03T10:18:13;102985.03;;;12.25;40.49
72055;BME280;59936;51.490;5.436;2023-04-03T10:20:48;102993.31;;;12.10;44.46
72055;BME280;59936;51.490;5.436;2023-04-03T10:23:31;102993.31;;;12.10;44.46
72055;BME280;59936;51.490;5.436;2023-04-03T10:26:10;102989.88;;;11.97;46.79
72055;BME280;59936;51.490;5.436;2023-04-03T10:31:54;102986.84;;;11.21;47.12
72055;BME280;59936;51.490;5.436;2023-04-03T10:34:40;102970.28;;;11.16;46.65
72055;BME280;59936;51.490;5.436;2023-04-03T10:37:30;102976.88;;;10.75;48.20
72055;BME280;59936;51.490;5.436;2023-04-03T10:40:37;102961.53;;;11.25;40.88
72055;BME280;59936;51.490;5.436;2023-04-03T10:43:29;102965.81;;;11.27;39.13
72055;BME280;59936;51.490;5.436;2023-04-03T10:46:13;102954.53;;;11.46;40.97
72055;BME280;59936;51.490;5.436;2023-04-03T10:48:57;102951.66;;;11.60;37.73
72055;BME280;59936;51.490;5.436;2023-04-03T10:51:41;102952.38;;;11.73;50.00
72055;BME280;59936;51.490;5.436;2023-04-03T10:54:49;102944.84;;;11.32;43.93
72055;BME280;59936;51.490;5.436;2023-04-03T10:57:12;102942.50;;;11.74;38.75
72055;BME280;59936;51.490;5.436;2023-04-03T11:02:26;102934.94;;;12.46;44.96
72055;BME280;59936;51.490;5.436;2023-04-03T11:05:06;102927.53;;;12.81;42.45
72055;BME280;59936;51.490;5.436;2023-04-03T11:07:41;102920.81;;;12.87;29.54
72055;BME280;59936;51.490;5.436;2023-04-03T11:10:19;102921.47;;;13.83;37.38
72055;BME280;59936;51.490;5.436;2023-04-03T11:12:51;102926.91;;;14.24;43.35
72055;BME280;59936;51.490;5.436;2023-04-03T11:15:20;102926.91;;;14.24;43.35
72055;BME280;59936;51.490;5.436;2023-04-03T11:17:56;102930.81;;;14.00;40.96
72055;BME280;59936;51.490;5.436;2023-04-03T11:20:30;102919.28;;;13.26;34.12
72055;BME280;59936;51.490;5.436;2023-04-03T11:23:36;102923.66;;;12.74;41.01
72055;BME280;59936;51.490;5.436;2023-04-03T11:26:08;102915.50;;;12.65;36.53
72055;BME280;59936;51.490;5.436;2023-04-03T11:28:36;102917.69;;;13.03;36.40
72055;BME280;59936;51.490;5.436;2023-04-03T11:33:43;102907.00;;;12.80;36.14
72055;BME280;59936;51.490;5.436;2023-04-03T11:36:22;102911.72;;;12.67;37.35
72055;BME280;59936;51.490;5.436;2023-04-03T11:38:52;102906.69;;;12.52;39.93
72055;BME280;59936;51.490;5.436;2023-04-03T11:41:28;102907.25;;;12.23;34.90
72055;BME280;59936;51.490;5.436;2023-04-03T11:44:02;102902.00;;;12.76;36.55
72055;BME280;59936;51.490;5.436;2023-04-03T12:05:51;102889.81;;;11.73;36.59
72055;BME280;59936;51.490;5.436;2023-04-03T12:08:44;102889.66;;;11.63;39.03
72055;BME280;59936;51.490;5.436;2023-04-03T12:19:24;102872.13;;;11.93;37.12
72055;BME280;59936;51.490;5.436;2023-04-03T12:29:35;102867.13;;;11.99;34.77
72055;BME280;59936;51.490;5.436;2023-04-03T12:35:03;102868.56;;;11.48;31.58
72055;BME280;59936;51.490;5.436;2023-04-03T12:40:34;102873.94;;;11.70;29.61
72055;BME280;59936;51.490;5.436;2023-04-03T12:46:17;102851.25;;;11.40;30.37
72055;BME280;59936;51.490;5.436;2023-04-03T12:48:53;102845.78;;;11.53;37.90
72055;BME280;59936;51.490;5.436;2023-04-03T12:51:30;102848.66;;;11.28;34.71
72055;BME280;59936;51.490;5.436;2023-04-03T12:54:12;102842.66;;;11.13;36.43
72055;BME280;59936;51.490;5.436;2023-04-03T12:56:39;102835.13;;;11.29;38.91
72055;BME280;59936;51.490;5.436;2023-04-03T12:59:23;102832.59;;;11.72;37.05
72055;BME280;59936;51.490;5.436;2023-04-03T13:01:59;102832.59;;;11.72;37.05
72055;BME280;59936;51.490;5.436;2023-04-03T13:04:27;102829.06;;;12.48;35.07
72055;BME280;59936;51.490;5.436;2023-04-03T13:06:54;102829.06;;;12.48;35.07
72055;BME280;59936;51.490;5.436;2023-04-03T13:09:30;102823.94;;;12.77;37.08
72055;BME280;59936;51.490;5.436;2023-04-03T13:11:59;102820.09;;;13.12;31.35
72055;BME280;59936;51.490;5.436;2023-04-03T13:14:27;102823.94;;;12.77;36.96
72055;BME280;59936;51.490;5.436;2023-04-03T13:17:19;102816.19;;;12.20;32.69
72055;BME280;59936;51.490;5.436;2023-04-03T13:19:45;102827.53;;;12.12;39.04
72055;BME280;59936;51.490;5.436;2023-04-03T13:24:44;102824.03;;;12.01;32.96
72055;BME280;59936;51.490;5.436;2023-04-03T13:27:12;102813.28;;;12.01;37.78
72055;BME280;59936;51.490;5.436;2023-04-03T13:29:39;102814.91;;;11.81;39.40
72055;BME280;59936;51.490;5.436;2023-04-03T13:32:06;102814.59;;;12.06;37.87
72055;BME280;59936;51.490;5.436;2023-04-03T13:34:38;102808.81;;;11.79;38.51
72055;BME280;59936;51.490;5.436;2023-04-03T13:37:05;102806.50;;;11.52;38.56
72055;BME280;59936;51.490;5.436;2023-04-03T13:39:32;102809.78;;;11.44;39.50
72055;BME280;59936;51.490;5.436;2023-04-03T13:42:01;102804.81;;;11.40;36.28
72055;BME280;59936;51.490;5.436;2023-04-03T13:44:34;102811.38;;;11.36;39.27
72055;BME280;59936;51.490;5.436;2023-04-03T13:49:59;102802.75;;;10.97;35.57
72055;BME280;59936;51.490;5.436;2023-04-03T13:52:33;102797.81;;;11.26;37.78
72055;BME280;59936;51.490;5.436;2023-04-03T13:55:03;102801.84;;;11.43;39.49
72055;BME280;59936;51.490;5.436;2023-04-03T13:57:48;102809.00;;;11.20;36.45
72055;BME280;59936;51.490;5.436;2023-04-03T14:00:33;102809.00;;;11.20;36.45
72055;BME280;59936;51.490;5.436;2023-04-03T14:03:00;102789.28;;;11.10;38.08
72055;BME280;59936;51.490;5.436;2023-04-03T14:05:26;102789.28;;;11.10;38.08
72055;BME280;59936;51.490;5.436;2023-04-03T14:07:53;102790.63;;;11.16;40.27
72055;BME280;59936;51.490;5.436;2023-04-03T14:10:19;102784.50;;;11.02;34.48
72055;BME280;59936;51.490;5.436;2023-04-03T14:12:46;102791.75;;;11.35;39.25
72055;BME280;59936;51.490;5.436;2023-04-03T14:15:20;102791.75;;;11.35;39.25
72055;BME280;59936;51.490;5.436;2023-04-03T14:17:47;102794.91;;;11.40;34.59
72055;BME280;59936;51.490;5.436;2023-04-03T14:20:17;102775.53;;;12.13;38.05
72055;BME280;59936;51.490;5.436;2023-04-03T14:22:44;102777.34;;;11.81;37.11
72055;BME280;59936;51.490;5.436;2023-04-03T14:25:10;102781.34;;;11.64;38.42
72055;BME280;59936;51.490;5.436;2023-04-03T14:27:37;102767.47;;;12.98;32.88